createdAt,value
2023-01-07T00:01:16.555Z,5.18
2023-01-07T00:03:44.777Z,5.28
2023-01-07T00:06:14.442Z,5.80
2023-01-07T00:08:46.429Z,4.90
2023-01-07T00:11:16.469Z,4.68
2023-01-07T00:13:44.435Z,5.18
2023-01-07T00:16:14.366Z,4.55
2023-01-07T00:18:42.816Z,4.90
2023-01-07T00:21:13.277Z,5.10
2023-01-07T00:23:43.844Z,5.13
2023-01-07T00:26:14.096Z,5.32
2023-01-07T00:28:43.351Z,4.88
2023-01-07T00:31:17.567Z,5.68
2023-01-07T00:33:51.699Z,4.65
2023-01-07T00:36:20.169Z,4.22
2023-01-07T00:38:49.217Z,4.80
2023-01-07T00:41:16.958Z,4.55
2023-01-07T00:43:44.581Z,4.20
2023-01-07T00:46:14.856Z,4.53
2023-01-07T00:48:42.717Z,3.53
2023-01-07T00:51:11.503Z,4.03
2023-01-07T00:53:39.177Z,4.40
2023-01-07T00:56:10.042Z,4.70
2023-01-07T00:58:38.123Z,4.40
2023-01-07T01:01:06.676Z,4.43
2023-01-07T01:03:35.328Z,4.63
2023-01-07T01:06:04.219Z,4.57
2023-01-07T01:08:33.218Z,4.88
2023-01-07T01:11:04.883Z,3.58
2023-01-07T01:13:34.588Z,3.65
2023-01-07T01:16:02.474Z,3.75
2023-01-07T01:18:30.608Z,3.80
2023-01-07T01:21:04.301Z,4.43
2023-01-07T01:23:31.975Z,4.00
2023-01-07T01:26:03.956Z,3.22
2023-01-07T01:28:31.903Z,4.50
2023-01-07T01:31:01.170Z,4.75
2023-01-07T01:33:35.482Z,4.65
2023-01-07T01:36:05.317Z,3.90
2023-01-07T01:38:33.052Z,4.10
2023-01-07T01:41:00.972Z,4.38
2023-01-07T01:43:32.331Z,5.00
2023-01-07T01:46:05.564Z,4.28
2023-01-07T01:48:36.623Z,3.70
2023-01-07T01:51:05.139Z,4.47
2023-01-07T01:53:35.061Z,4.47
2023-01-07T01:56:08.515Z,4.22
2023-01-07T01:58:40.075Z,4.15
2023-01-07T02:01:10.009Z,3.38
2023-01-07T02:03:39.605Z,4.47
2023-01-07T02:06:13.868Z,3.20
2023-01-07T02:08:41.902Z,3.40
2023-01-07T02:11:22.714Z,3.80
2023-01-07T02:14:02.699Z,3.40
2023-01-07T02:16:38.757Z,2.88
2023-01-07T02:19:34.348Z,3.00
2023-01-07T02:22:07.439Z,3.45
2023-01-07T02:25:01.296Z,3.38
2023-01-07T02:27:48.302Z,2.97
2023-01-07T02:30:43.877Z,3.08
2023-01-07T02:33:24.694Z,3.05
2023-01-07T02:36:15.807Z,2.38
2023-01-07T02:38:53.776Z,2.97
2023-01-07T02:41:32.654Z,2.20
2023-01-07T02:44:05.833Z,2.25
2023-01-07T02:46:41.285Z,2.25
2023-01-07T02:49:11.829Z,2.58
2023-01-07T02:51:41.517Z,2.53
2023-01-07T02:54:14.241Z,2.30
2023-01-07T02:57:07.891Z,2.28
2023-01-07T02:59:56.025Z,2.20
2023-01-07T03:02:38.504Z,2.38
2023-01-07T03:05:25.136Z,2.08
2023-01-07T03:08:14.131Z,1.85
2023-01-07T03:10:49.620Z,1.98
2023-01-07T03:13:22.778Z,2.40
2023-01-07T03:15:57.503Z,1.75
2023-01-07T03:18:28.637Z,1.75
2023-01-07T03:21:04.784Z,1.98
2023-01-07T03:23:36.982Z,1.95
2023-01-07T03:26:07.404Z,2.50
2023-01-07T03:28:41.510Z,2.08
2023-01-07T03:31:13.354Z,1.80
2023-01-07T03:33:44.412Z,1.85
2023-01-07T03:36:18.142Z,1.83
2023-01-07T03:38:48.085Z,1.90
2023-01-07T03:41:36.097Z,1.70
2023-01-07T03:44:02.990Z,1.52
2023-01-07T03:48:58.216Z,1.85
2023-01-07T03:51:27.289Z,1.88
2023-01-07T03:53:54.942Z,1.90
2023-01-07T03:56:25.141Z,1.73
2023-01-07T03:58:52.870Z,1.98
2023-01-07T04:01:20.724Z,2.30
2023-01-07T04:03:48.951Z,2.22
2023-01-07T04:06:17.788Z,2.03
2023-01-07T04:08:47.043Z,1.80
2023-01-07T04:11:15.215Z,1.90
2023-01-07T04:13:42.976Z,1.80
2023-01-07T04:16:10.727Z,1.70
2023-01-07T04:18:38.503Z,1.83
2023-01-07T04:21:06.921Z,1.70
2023-01-07T04:23:34.695Z,1.98
2023-01-07T04:26:03.964Z,1.73
2023-01-07T04:28:32.463Z,2.00
2023-01-07T04:31:01.120Z,1.70
2023-01-07T04:33:28.939Z,1.90
2023-01-07T04:35:57.939Z,2.10
2023-01-07T04:38:26.479Z,1.98
2023-01-07T04:40:55.711Z,1.77
2023-01-07T04:43:25.240Z,2.10
2023-01-07T04:45:53.025Z,1.70
2023-01-07T04:48:21.331Z,2.20
2023-01-07T04:50:52.029Z,2.22
2023-01-07T04:53:20.277Z,2.13
2023-01-07T04:55:49.113Z,1.98
2023-01-07T04:58:17.368Z,2.30
2023-01-07T05:00:48.182Z,2.03
2023-01-07T05:03:16.125Z,2.30
2023-01-07T05:05:44.660Z,2.20
2023-01-07T05:08:12.409Z,2.50
2023-01-07T05:10:40.900Z,2.70
2023-01-07T05:13:08.720Z,2.22
2023-01-07T05:15:36.615Z,1.80
2023-01-07T05:18:07.212Z,2.15
2023-01-07T05:20:35.288Z,2.10
2023-01-07T05:23:05.569Z,2.25
2023-01-07T05:25:34.788Z,1.95
2023-01-07T05:28:02.821Z,2.00
2023-01-07T05:30:32.717Z,2.10
2023-01-07T05:33:00.422Z,2.05
2023-01-07T05:35:30.355Z,2.10
2023-01-07T05:37:58.013Z,2.42
2023-01-07T05:40:25.739Z,2.20
2023-01-07T05:42:53.691Z,2.50
2023-01-07T05:45:22.169Z,2.00
2023-01-07T05:47:50.316Z,2.40
2023-01-07T05:50:18.119Z,2.22
2023-01-07T05:52:47.444Z,2.05
2023-01-07T05:55:15.245Z,2.22
2023-01-07T05:57:42.891Z,2.30
2023-01-07T06:00:11.687Z,2.00
2023-01-07T06:02:42.008Z,2.30
2023-01-07T06:05:10.868Z,2.20
2023-01-07T06:07:38.544Z,2.47
2023-01-07T06:10:08.303Z,2.30
2023-01-07T06:12:35.968Z,1.98
2023-01-07T06:15:03.644Z,2.47
2023-01-07T06:17:31.311Z,2.20
2023-01-07T06:19:59.090Z,2.55
2023-01-07T06:22:26.944Z,2.50
2023-01-07T06:24:54.624Z,2.60
2023-01-07T06:27:23.749Z,2.35
2023-01-07T06:29:51.418Z,2.30
2023-01-07T06:32:19.067Z,2.13
2023-01-07T06:34:46.726Z,2.70
2023-01-07T06:37:14.876Z,2.00
2023-01-07T06:39:42.634Z,2.25
2023-01-07T06:42:10.344Z,2.15
2023-01-07T06:44:39.445Z,2.20
2023-01-07T06:47:07.136Z,2.13
2023-01-07T06:49:34.784Z,2.40
2023-01-07T06:52:02.556Z,2.47
2023-01-07T06:54:30.224Z,2.20
2023-01-07T06:56:57.898Z,2.30
2023-01-07T06:59:25.568Z,2.50
2023-01-07T07:01:54.754Z,2.00
2023-01-07T07:04:22.587Z,2.10
2023-01-07T07:06:50.246Z,2.50
2023-01-07T07:09:17.898Z,2.03
2023-01-07T07:11:45.591Z,2.75
2023-01-07T07:14:13.328Z,2.10
2023-01-07T07:16:41.038Z,2.42
2023-01-07T07:19:10.288Z,2.30
2023-01-07T07:21:37.992Z,2.22
2023-01-07T07:24:06.425Z,2.67
2023-01-07T07:26:34.107Z,2.67
2023-01-07T07:29:01.837Z,2.50
2023-01-07T07:31:29.595Z,2.95
2023-01-07T07:33:57.418Z,2.80
2023-01-07T07:36:26.503Z,2.67
2023-01-07T07:38:54.423Z,2.83
2023-01-07T07:41:23.271Z,2.30
2023-01-07T07:43:51.614Z,2.70
2023-01-07T07:46:19.358Z,2.08
2023-01-07T07:48:49.568Z,2.42
2023-01-07T07:51:17.716Z,2.22
2023-01-07T07:53:46.791Z,1.98
2023-01-07T07:56:14.522Z,2.17
2023-01-07T07:58:42.938Z,1.85
2023-01-07T08:01:10.796Z,2.00
2023-01-07T08:03:38.584Z,1.85
2023-01-07T08:06:07.000Z,1.83
2023-01-07T08:08:34.694Z,2.03
2023-01-07T08:11:05.710Z,2.10
2023-01-07T08:13:33.405Z,1.80
2023-01-07T08:16:01.358Z,1.75
2023-01-07T08:18:29.093Z,1.80
2023-01-07T08:20:56.821Z,1.80
2023-01-07T08:23:24.568Z,1.70
2023-01-07T08:25:52.225Z,1.60
2023-01-07T08:28:21.230Z,1.55
2023-01-07T08:30:48.931Z,1.40
2023-01-07T08:33:16.597Z,1.70
2023-01-07T08:35:45.394Z,1.30
2023-01-07T08:38:13.231Z,1.40
2023-01-07T08:40:40.934Z,1.30
2023-01-07T08:43:09.582Z,1.35
2023-01-07T08:45:38.816Z,1.35
2023-01-07T08:48:07.220Z,1.30
2023-01-07T08:50:35.232Z,1.30
2023-01-07T08:53:03.023Z,1.60
2023-01-07T08:55:30.724Z,1.40
2023-01-07T08:57:58.528Z,1.50
2023-01-07T09:00:26.612Z,1.40
2023-01-07T09:02:55.638Z,1.08
2023-01-07T09:05:24.466Z,1.23
2023-01-07T09:07:53.116Z,1.50
2023-01-07T09:10:21.354Z,1.20
2023-01-07T09:12:49.111Z,1.30
2023-01-07T09:15:16.928Z,1.27
2023-01-07T09:17:44.612Z,1.20
2023-01-07T09:20:13.964Z,1.35
2023-01-07T09:22:42.691Z,1.30
2023-01-07T09:25:10.838Z,1.35
2023-01-07T09:27:39.269Z,1.30
2023-01-07T09:30:09.375Z,1.20
2023-01-07T09:32:37.260Z,1.30
2023-01-07T09:35:05.517Z,1.33
2023-01-07T09:37:34.600Z,1.30
2023-01-07T09:40:02.325Z,1.13
2023-01-07T09:42:38.691Z,1.10
2023-01-07T09:45:14.882Z,1.10
2023-01-07T09:47:45.597Z,1.20
2023-01-07T09:50:20.630Z,0.98
2023-01-07T09:52:52.697Z,0.90
2023-01-07T09:55:26.827Z,1.10
2023-01-07T09:57:54.601Z,1.10
2023-01-07T10:00:25.066Z,0.90
2023-01-07T10:03:08.047Z,1.05
2023-01-07T10:05:43.298Z,1.00
2023-01-07T10:08:29.281Z,0.82
2023-01-07T10:11:07.050Z,1.55
2023-01-07T10:13:49.301Z,1.20
2023-01-07T10:16:24.659Z,0.90
2023-01-07T10:19:03.269Z,0.80
2023-01-07T10:21:41.097Z,1.23
2023-01-07T10:24:21.685Z,0.90
2023-01-07T10:26:53.254Z,0.93
2023-01-07T10:29:28.562Z,0.85
2023-01-07T10:32:00.897Z,0.80
2023-01-07T10:34:35.381Z,1.10
2023-01-07T10:37:07.099Z,1.02
2023-01-07T10:39:57.726Z,0.90
2023-01-07T10:42:32.350Z,1.30
2023-01-07T10:45:21.459Z,0.90
2023-01-07T10:48:01.179Z,1.10
2023-01-07T10:50:46.967Z,1.00
2023-01-07T10:53:26.806Z,1.48
2023-01-07T10:56:03.575Z,1.00
2023-01-07T10:58:37.317Z,0.90
2023-01-07T11:01:06.092Z,0.98
2023-01-07T11:03:34.753Z,1.00
2023-01-07T11:06:07.239Z,0.85
2023-01-07T11:08:39.304Z,1.00
2023-01-07T11:11:15.503Z,1.05
2023-01-07T11:13:47.975Z,1.10
2023-01-07T11:16:23.488Z,1.00
2023-01-07T11:18:55.941Z,0.98
2023-01-07T11:21:43.456Z,1.23
2023-01-07T11:24:32.834Z,0.90
2023-01-07T11:27:05.974Z,0.93
2023-01-07T11:29:39.986Z,1.17
2023-01-07T11:32:19.615Z,1.00
2023-01-07T11:34:53.942Z,1.02
2023-01-07T11:37:33.227Z,1.00
2023-01-07T11:40:02.759Z,0.90
2023-01-07T11:42:40.814Z,1.25
2023-01-07T11:45:13.575Z,1.10
2023-01-07T11:47:47.239Z,0.80
2023-01-07T11:50:26.315Z,0.90
2023-01-07T11:53:03.348Z,1.15
2023-01-07T11:55:31.783Z,1.45
2023-01-07T11:58:29.405Z,1.40
2023-01-07T12:01:04.718Z,1.27
2023-01-07T12:03:32.596Z,1.00
2023-01-07T12:06:06.789Z,1.30
2023-01-07T12:08:34.822Z,1.10
2023-01-07T12:11:08.773Z,1.02
2023-01-07T12:13:41.512Z,1.30
2023-01-07T12:16:11.088Z,1.40
2023-01-07T12:19:04.456Z,1.30
2023-01-07T12:21:35.139Z,1.40
2023-01-07T12:24:19.267Z,1.13
2023-01-07T12:26:55.393Z,1.30
2023-01-07T12:29:38.591Z,1.70
2023-01-07T12:32:21.177Z,1.52
2023-01-07T12:34:55.887Z,1.48
2023-01-07T12:37:32.140Z,1.30
2023-01-07T12:40:12.204Z,1.20
2023-01-07T12:42:44.026Z,1.60
2023-01-07T12:45:20.525Z,1.65
2023-01-07T12:50:26.361Z,1.33
2023-01-07T12:53:00.030Z,1.20
2023-01-07T12:55:31.659Z,1.20
2023-01-07T12:58:07.352Z,1.88
2023-01-07T13:00:43.611Z,1.80
2023-01-07T13:03:25.962Z,1.65
2023-01-07T13:05:57.487Z,1.55
2023-01-07T13:08:33.141Z,1.50
2023-01-07T13:11:08.532Z,1.60
2023-01-07T13:13:41.622Z,1.38
2023-01-07T13:16:12.101Z,1.60
2023-01-07T13:18:39.964Z,1.38
2023-01-07T13:21:09.985Z,1.42
2023-01-07T13:24:00.142Z,1.20
2023-01-07T13:26:35.319Z,1.30
2023-01-07T13:29:17.240Z,1.50
2023-01-07T13:32:09.418Z,1.30
2023-01-07T13:34:48.592Z,1.52
2023-01-07T13:37:35.166Z,1.30
2023-01-07T13:40:19.928Z,1.45
2023-01-07T13:42:52.995Z,1.20
2023-01-07T13:45:24.201Z,1.30
2023-01-07T13:47:55.452Z,1.35
2023-01-07T13:50:32.275Z,1.50
2023-01-07T13:53:03.462Z,1.52
2023-01-07T13:55:42.103Z,1.67
2023-01-07T13:58:36.297Z,1.67
2023-01-07T14:01:07.191Z,1.50
2023-01-07T14:03:41.600Z,1.80
2023-01-07T14:06:43.286Z,1.60
2023-01-07T14:09:33.221Z,1.40
2023-01-07T14:12:30.395Z,1.70
2023-01-07T14:15:10.995Z,1.52
2023-01-07T14:17:49.099Z,1.60
2023-01-07T14:20:25.538Z,1.80
2023-01-07T14:23:00.310Z,1.48
2023-01-07T14:25:46.868Z,1.60
2023-01-07T14:28:33.966Z,1.40
2023-01-07T14:31:02.056Z,1.80
2023-01-07T14:33:35.169Z,1.60
2023-01-07T14:36:07.523Z,1.33
2023-01-07T14:39:00.159Z,1.45
2023-01-07T14:41:28.331Z,1.73
2023-01-07T14:44:05.604Z,1.27
2023-01-07T14:46:53.204Z,1.50
2023-01-07T14:49:46.064Z,1.35
2023-01-07T14:52:32.160Z,1.10
2023-01-07T14:55:19.080Z,1.30
2023-01-07T14:57:58.970Z,1.08
2023-01-07T15:00:50.614Z,1.17
2023-01-07T15:03:33.161Z,1.20
2023-01-07T15:06:27.312Z,1.08
2023-01-07T15:09:22.416Z,1.23
2023-01-07T15:12:10.274Z,1.10
2023-01-07T15:15:01.160Z,1.38
2023-01-07T15:17:29.082Z,1.20
2023-01-07T15:19:57.652Z,1.20
2023-01-07T15:22:46.152Z,1.20
2023-01-07T15:25:26.907Z,1.20
2023-01-07T15:28:04.435Z,1.25
2023-01-07T15:30:41.658Z,1.10
2023-01-07T15:33:30.763Z,1.95
2023-01-07T15:35:58.911Z,2.75
2023-01-07T15:38:29.919Z,2.88
2023-01-07T15:41:00.033Z,3.40
2023-01-07T15:43:30.721Z,2.00
2023-01-07T15:46:00.765Z,1.33
2023-01-07T15:48:28.988Z,1.17
2023-01-07T15:50:56.986Z,1.10
2023-01-07T15:53:27.125Z,1.23
2023-01-07T15:55:59.546Z,1.20
2023-01-07T15:58:35.665Z,1.30
2023-01-07T16:01:04.906Z,1.50
2023-01-07T16:03:33.919Z,1.20
2023-01-07T16:06:01.819Z,1.20
2023-01-07T16:08:33.298Z,1.52
2023-01-07T16:11:03.379Z,1.20
2023-01-07T16:13:35.066Z,1.20
2023-01-07T16:16:06.447Z,1.58
2023-01-07T16:18:34.319Z,1.60
2023-01-07T16:21:05.556Z,1.70
2023-01-07T16:23:34.668Z,1.70
2023-01-07T16:26:06.064Z,1.48
2023-01-07T16:28:40.435Z,1.60
2023-01-07T16:31:11.462Z,2.08
2023-01-07T16:33:40.864Z,1.80
2023-01-07T16:36:15.503Z,2.00
2023-01-07T16:38:45.587Z,2.03
2023-01-07T16:41:21.501Z,2.42
2023-01-07T16:43:52.497Z,2.13
2023-01-07T16:46:25.301Z,2.50
2023-01-07T16:49:18.375Z,2.30
2023-01-07T16:51:49.876Z,2.35
2023-01-07T16:54:31.079Z,2.20
2023-01-07T16:57:00.504Z,2.53
2023-01-07T16:59:32.195Z,2.70
2023-01-07T17:02:03.001Z,2.45
2023-01-07T17:04:31.419Z,2.15
2023-01-07T17:07:01.564Z,2.30
2023-01-07T17:09:34.996Z,2.88
2023-01-07T17:12:03.186Z,2.72
2023-01-07T17:14:50.619Z,2.97
2023-01-07T17:17:28.074Z,2.80
2023-01-07T17:20:02.666Z,2.83
2023-01-07T17:22:32.946Z,3.13
2023-01-07T17:25:04.567Z,2.90
2023-01-07T17:27:32.864Z,3.67
2023-01-07T17:30:04.984Z,3.20
2023-01-07T17:32:43.094Z,3.10
2023-01-07T17:35:17.897Z,3.15
2023-01-07T17:37:45.799Z,3.05
2023-01-07T17:40:15.178Z,3.35
2023-01-07T17:43:00.817Z,4.00
2023-01-07T17:45:32.929Z,3.38
2023-01-07T17:48:01.411Z,3.65
2023-01-07T17:50:35.897Z,4.00
2023-01-07T17:53:04.252Z,3.22
2023-01-07T17:55:36.219Z,3.15
2023-01-07T17:58:05.762Z,3.53
2023-01-07T18:00:36.546Z,3.40
2023-01-07T18:03:04.605Z,3.55
2023-01-07T18:05:32.392Z,3.38
2023-01-07T18:08:00.107Z,3.40
2023-01-07T18:10:50.278Z,3.10
2023-01-07T18:13:16.954Z,3.50
2023-01-07T18:15:45.997Z,3.90
2023-01-07T18:18:13.758Z,3.40
2023-01-07T18:20:41.429Z,3.45
2023-01-07T18:23:10.203Z,3.03
2023-01-07T18:25:37.997Z,3.83
2023-01-07T18:28:05.835Z,3.53
2023-01-07T18:30:36.474Z,3.40
2023-01-07T18:33:07.573Z,3.55
2023-01-07T18:35:35.526Z,3.80
2023-01-07T18:38:03.686Z,3.83
2023-01-07T18:40:31.973Z,3.50
2023-01-07T18:43:00.907Z,3.45
2023-01-07T18:45:28.601Z,3.42
2023-01-07T18:47:56.310Z,4.55
2023-01-07T18:50:25.721Z,3.10
2023-01-07T18:52:53.391Z,4.00
2023-01-07T18:55:21.088Z,3.38
2023-01-07T18:57:48.813Z,3.58
2023-01-07T19:00:17.552Z,3.40
2023-01-07T19:02:45.238Z,3.38
2023-01-07T19:05:13.236Z,3.58
2023-01-07T19:07:43.310Z,3.35
2023-01-07T19:10:11.476Z,3.22
2023-01-07T19:12:39.194Z,3.20
2023-01-07T19:15:07.891Z,3.95
2023-01-07T19:17:35.711Z,3.70
2023-01-07T19:20:03.390Z,3.70
2023-01-07T19:22:31.191Z,3.88
2023-01-07T19:25:00.243Z,3.95
2023-01-07T19:27:27.925Z,3.45
2023-01-07T19:29:55.599Z,3.33
2023-01-07T19:32:23.315Z,4.30
2023-01-07T19:34:52.346Z,4.30
2023-01-07T19:37:21.825Z,4.13
2023-01-07T19:39:49.530Z,3.72
2023-01-07T19:42:18.560Z,3.80
2023-01-07T19:44:46.248Z,3.50
2023-01-07T19:47:13.950Z,3.72
2023-01-07T19:49:41.837Z,3.95
2023-01-07T19:52:09.674Z,4.15
2023-01-07T19:54:37.385Z,4.38
2023-01-07T19:57:05.275Z,4.20
2023-01-07T19:59:34.956Z,4.18
2023-01-07T20:02:03.584Z,5.38
2023-01-07T20:04:31.619Z,3.70
2023-01-07T20:06:59.346Z,3.90
2023-01-07T20:09:27.075Z,4.20
2023-01-07T20:11:54.839Z,4.00
2023-01-07T20:14:22.471Z,3.60
2023-01-07T20:16:51.543Z,3.17
2023-01-07T20:19:19.301Z,3.17
2023-01-07T20:21:46.955Z,3.33
2023-01-07T20:24:14.853Z,3.22
2023-01-07T20:26:42.589Z,3.75
2023-01-07T20:29:10.279Z,3.47
2023-01-07T20:31:38.061Z,3.28
2023-01-07T20:34:07.385Z,3.42
2023-01-07T20:36:35.116Z,3.40
2023-01-07T20:39:05.763Z,3.60
2023-01-07T20:41:35.514Z,3.40
2023-01-07T20:44:05.547Z,3.05
2023-01-07T20:46:34.676Z,4.25
2023-01-07T20:49:03.090Z,3.47
2023-01-07T20:51:32.177Z,3.40
2023-01-07T20:53:59.863Z,3.75
2023-01-07T20:56:31.748Z,3.58
2023-01-07T20:59:00.480Z,3.58
2023-01-07T21:01:29.415Z,3.75
2023-01-07T21:03:57.227Z,3.30
2023-01-07T21:06:25.271Z,3.85
2023-01-07T21:08:54.266Z,3.65
2023-01-07T21:11:23.673Z,4.00
2023-01-07T21:13:52.110Z,3.05
2023-01-07T21:16:19.928Z,3.22
2023-01-07T21:18:47.967Z,3.20
2023-01-07T21:21:17.377Z,3.70
2023-01-07T21:23:46.698Z,3.97
2023-01-07T21:26:16.304Z,3.38
2023-01-07T21:28:44.864Z,3.20
2023-01-07T21:31:15.178Z,3.65
2023-01-07T21:33:43.376Z,3.85
2023-01-07T21:36:13.170Z,3.63
2023-01-07T21:38:40.875Z,2.70
2023-01-07T21:41:09.607Z,3.50
2023-01-07T21:43:38.977Z,3.70
2023-01-07T21:46:07.649Z,3.58
2023-01-07T21:48:36.027Z,3.58
2023-01-07T21:51:05.718Z,3.40
2023-01-07T21:53:34.526Z,3.33
2023-01-07T21:56:06.263Z,3.42
2023-01-07T21:58:34.039Z,3.40
2023-01-07T22:01:03.225Z,3.15
2023-01-07T22:03:30.937Z,3.53
2023-01-07T22:05:59.448Z,3.45
2023-01-07T22:08:27.567Z,2.67
2023-01-07T22:10:55.274Z,3.42
2023-01-07T22:13:23.044Z,2.90
2023-01-07T22:15:51.069Z,3.03
2023-01-07T22:18:20.128Z,2.85
2023-01-07T22:20:53.799Z,3.45
2023-01-07T22:23:21.527Z,3.17
2023-01-07T22:25:49.292Z,3.20
2023-01-07T22:28:18.859Z,2.83
2023-01-07T22:30:52.403Z,2.88
2023-01-07T22:33:22.507Z,2.80
2023-01-07T22:35:51.021Z,2.50
2023-01-07T22:38:21.115Z,3.13
2023-01-07T22:40:49.078Z,3.13
2023-01-07T22:43:20.483Z,2.63
2023-01-07T22:45:54.339Z,2.95
2023-01-07T22:48:27.304Z,2.80
2023-01-07T22:51:00.139Z,2.80
2023-01-07T22:53:30.026Z,2.47
2023-01-07T22:55:59.124Z,2.90
2023-01-07T22:58:27.169Z,2.88
2023-01-07T23:01:12.690Z,2.80
2023-01-07T23:03:43.490Z,2.97
2023-01-07T23:06:13.861Z,3.13
2023-01-07T23:08:42.389Z,3.05
2023-01-07T23:11:10.612Z,2.65
2023-01-07T23:13:38.858Z,2.90
2023-01-07T23:16:07.529Z,2.80
2023-01-07T23:18:35.856Z,3.03
2023-01-07T23:21:06.545Z,2.55
2023-01-07T23:23:34.255Z,2.70
2023-01-07T23:26:01.980Z,2.83
2023-01-07T23:28:29.675Z,2.70
2023-01-07T23:31:01.530Z,2.70
2023-01-07T23:33:29.293Z,2.40
2023-01-07T23:36:02.432Z,2.97
2023-01-07T23:38:31.808Z,2.70
2023-01-07T23:41:03.343Z,2.47
2023-01-07T23:43:31.308Z,2.80
2023-01-07T23:45:59.432Z,2.50
2023-01-07T23:48:27.744Z,2.40
2023-01-07T23:50:56.504Z,2.40
2023-01-07T23:53:24.429Z,2.83
2023-01-07T23:55:54.423Z,2.60
2023-01-07T23:58:23.192Z,2.42
